sensor_id;sensor_type;location;lat;lon;timestamp;pressure;altitude;pressure_sealevel;temperature;humidity
9740;BME280;4909;42.680;26.324;2023-05-14T00:01:19;99305.88;;;14.93;54.18
9740;BME280;4909;42.680;26.324;2023-05-14T00:03:47;99312.88;;;14.78;54.71
9740;BME280;4909;42.680;26.324;2023-05-14T00:06:14;99303.28;;;14.91;54.20
9740;BME280;4909;42.680;26.324;2023-05-14T00:08:41;99305.88;;;15.10;53.10
9740;BME280;4909;42.680;26.324;2023-05-14T00:11:07;99309.19;;;15.15;55.36
9740;BME280;4909;42.680;26.324;2023-05-14T00:13:34;99318.53;;;15.23;51.98
9740;BME280;4909;42.680;26.324;2023-05-14T00:16:01;99321.44;;;15.19;52.23
9740;BME280;4909;42.680;26.324;2023-05-14T00:18:28;99305.66;;;14.97;52.84
9740;BME280;4909;42.680;26.324;2023-05-14T00:20:56;99299.34;;;14.98;53.32
9740;BME280;4909;42.680;26.324;2023-05-14T00:23:23;99302.59;;;15.05;54.39
9740;BME280;4909;42.680;26.324;2023-05-14T00:25:50;99308.78;;;15.22;53.96
9740;BME280;4909;42.680;26.324;2023-05-14T00:28:16;99299.81;;;15.23;53.26
9740;BME280;4909;42.680;26.324;2023-05-14T00:30:43;99301.63;;;15.23;53.40
9740;BME280;4909;42.680;26.324;2023-05-14T00:33:10;99278.03;;;15.14;53.00
9740;BME280;4909;42.680;26.324;2023-05-14T00:35:37;99304.69;;;15.15;54.54
9740;BME280;4909;42.680;26.324;2023-05-14T00:38:05;99298.00;;;15.07;53.66
9740;BME280;4909;42.680;26.324;2023-05-14T00:40:32;99298.31;;;15.18;54.45
9740;BME280;4909;42.680;26.324;2023-05-14T00:42:59;99301.06;;;15.16;54.92
9740;BME280;4909;42.680;26.324;2023-05-14T00:45:25;99289.88;;;15.26;54.34
9740;BME280;4909;42.680;26.324;2023-05-14T00:47:53;99286.25;;;15.27;54.77
9740;BME280;4909;42.680;26.324;2023-05-14T00:50:20;99275.63;;;15.42;55.10
9740;BME280;4909;42.680;26.324;2023-05-14T00:52:47;99279.69;;;15.49;55.42
9740;BME280;4909;42.680;26.324;2023-05-14T00:55:16;99264.06;;;15.42;52.77
9740;BME280;4909;42.680;26.324;2023-05-14T00:57:45;99237.75;;;15.17;54.10
9740;BME280;4909;42.680;26.324;2023-05-14T01:00:12;99261.63;;;15.37;53.87
9740;BME280;4909;42.680;26.324;2023-05-14T01:02:39;99257.16;;;15.38;53.90
9740;BME280;4909;42.680;26.324;2023-05-14T01:05:07;99254.25;;;15.25;52.50
9740;BME280;4909;42.680;26.324;2023-05-14T01:07:41;99259.94;;;15.19;52.76
9740;BME280;4909;42.680;26.324;2023-05-14T01:10:16;99213.88;;;14.81;53.51
9740;BME280;4909;42.680;26.324;2023-05-14T01:12:51;99234.38;;;14.81;53.30
9740;BME280;4909;42.680;26.324;2023-05-14T01:15:20;99252.97;;;14.82;54.77
9740;BME280;4909;42.680;26.324;2023-05-14T01:17:52;99254.88;;;14.80;53.76
9740;BME280;4909;42.680;26.324;2023-05-14T01:20:20;99251.97;;;14.85;55.17
9740;BME280;4909;42.680;26.324;2023-05-14T01:22:48;99246.84;;;14.97;54.15
9740;BME280;4909;42.680;26.324;2023-05-14T01:25:15;99251.00;;;15.20;55.31
9740;BME280;4909;42.680;26.324;2023-05-14T01:27:48;99243.47;;;15.27;53.96
9740;BME280;4909;42.680;26.324;2023-05-14T01:30:19;99236.38;;;15.43;54.00
9740;BME280;4909;42.680;26.324;2023-05-14T01:32:50;99241.28;;;15.50;55.49
9740;BME280;4909;42.680;26.324;2023-05-14T01:35:19;99233.75;;;15.74;55.16
9740;BME280;4909;42.680;26.324;2023-05-14T01:37:49;99227.97;;;15.97;54.30
9740;BME280;4909;42.680;26.324;2023-05-14T01:40:16;99223.91;;;16.06;54.02
9740;BME280;4909;42.680;26.324;2023-05-14T01:42:44;99221.22;;;16.06;53.73
9740;BME280;4909;42.680;26.324;2023-05-14T01:47:56;99221.38;;;16.19;52.20
9740;BME280;4909;42.680;26.324;2023-05-14T01:50:23;99211.38;;;16.06;52.62
9740;BME280;4909;42.680;26.324;2023-05-14T01:52:51;99206.72;;;15.94;53.71
9740;BME280;4909;42.680;26.324;2023-05-14T01:55:20;99209.72;;;16.04;52.50
9740;BME280;4909;42.680;26.324;2023-05-14T01:57:48;99215.94;;;16.04;53.49
9740;BME280;4909;42.680;26.324;2023-05-14T02:00:15;99214.47;;;15.99;52.94
9740;BME280;4909;42.680;26.324;2023-05-14T02:02:42;99216.53;;;16.09;51.36
9740;BME280;4909;42.680;26.324;2023-05-14T02:05:09;99204.03;;;15.94;53.04
9740;BME280;4909;42.680;26.324;2023-05-14T02:07:36;99229.34;;;15.89;51.76
9740;BME280;4909;42.680;26.324;2023-05-14T02:10:06;99216.66;;;15.61;51.72
9740;BME280;4909;42.680;26.324;2023-05-14T02:12:33;99230.91;;;15.29;53.36
9740;BME280;4909;42.680;26.324;2023-05-14T02:15:00;99228.28;;;15.27;54.22
9740;BME280;4909;42.680;26.324;2023-05-14T02:17:27;99231.41;;;15.52;53.55
9740;BME280;4909;42.680;26.324;2023-05-14T02:19:54;99237.19;;;15.76;52.69
9740;BME280;4909;42.680;26.324;2023-05-14T02:22:20;99225.81;;;15.73;51.64
9740;BME280;4909;42.680;26.324;2023-05-14T02:24:47;99237.72;;;15.83;52.37
9740;BME280;4909;42.680;26.324;2023-05-14T02:27:17;99233.06;;;15.86;52.97
9740;BME280;4909;42.680;26.324;2023-05-14T02:29:44;99229.53;;;15.86;52.93
9740;BME280;4909;42.680;26.324;2023-05-14T02:32:10;99241.34;;;15.66;51.53
9740;BME280;4909;42.680;26.324;2023-05-14T02:34:37;99240.38;;;15.51;53.70
9740;BME280;4909;42.680;26.324;2023-05-14T02:37:04;99247.03;;;15.60;52.63
9740;BME280;4909;42.680;26.324;2023-05-14T02:39:31;99261.38;;;15.75;52.72
9740;BME280;4909;42.680;26.324;2023-05-14T02:41:57;99248.78;;;15.77;53.00
9740;BME280;4909;42.680;26.324;2023-05-14T02:44:26;99245.16;;;15.78;52.94
9740;BME280;4909;42.680;26.324;2023-05-14T02:46:52;99248.00;;;15.90;52.53
9740;BME280;4909;42.680;26.324;2023-05-14T02:49:19;99225.38;;;15.80;53.36
9740;BME280;4909;42.680;26.324;2023-05-14T02:51:46;99236.88;;;15.82;52.37
9740;BME280;4909;42.680;26.324;2023-05-14T02:54:12;99236.53;;;15.73;53.37
9740;BME280;4909;42.680;26.324;2023-05-14T02:56:40;99220.78;;;15.67;52.76
9740;BME280;4909;42.680;26.324;2023-05-14T02:59:07;99220.53;;;15.71;53.13
9740;BME280;4909;42.680;26.324;2023-05-14T03:01:35;99231.47;;;15.51;51.25
9740;BME280;4909;42.680;26.324;2023-05-14T03:04:02;99233.56;;;15.44;53.06
9740;BME280;4909;42.680;26.324;2023-05-14T03:06:29;99230.44;;;15.69;54.13
9740;BME280;4909;42.680;26.324;2023-05-14T03:08:56;99223.31;;;15.85;52.43
9740;BME280;4909;42.680;26.324;2023-05-14T03:11:23;99211.53;;;15.88;52.38
9740;BME280;4909;42.680;26.324;2023-05-14T03:13:49;99221.84;;;15.95;52.00
9740;BME280;4909;42.680;26.324;2023-05-14T03:16:16;99219.75;;;15.85;52.49
9740;BME280;4909;42.680;26.324;2023-05-14T03:18:44;99191.03;;;15.73;52.42
9740;BME280;4909;42.680;26.324;2023-05-14T03:21:11;99202.06;;;15.67;53.04
9740;BME280;4909;42.680;26.324;2023-05-14T03:23:38;99226.84;;;15.70;53.23
9740;BME280;4909;42.680;26.324;2023-05-14T03:26:05;99230.31;;;15.72;53.04
9740;BME280;4909;42.680;26.324;2023-05-14T03:28:32;99214.75;;;15.63;52.95
9740;BME280;4909;42.680;26.324;2023-05-14T03:30:59;99221.94;;;15.62;53.95
9740;BME280;4909;42.680;26.324;2023-05-14T03:33:26;99231.16;;;15.73;52.49
9740;BME280;4909;42.680;26.324;2023-05-14T03:35:54;99222.53;;;15.68;52.95
9740;BME280;4909;42.680;26.324;2023-05-14T03:38:21;99242.03;;;15.70;54.84
9740;BME280;4909;42.680;26.324;2023-05-14T03:40:48;99242.22;;;15.82;53.22
9740;BME280;4909;42.680;26.324;2023-05-14T03:43:15;99220.88;;;15.81;53.74
9740;BME280;4909;42.680;26.324;2023-05-14T03:45:41;99252.31;;;16.08;53.40
9740;BME280;4909;42.680;26.324;2023-05-14T03:48:08;99243.03;;;16.30;53.64
9740;BME280;4909;42.680;26.324;2023-05-14T03:50:35;99254.09;;;16.39;52.32
9740;BME280;4909;42.680;26.324;2023-05-14T03:53:03;99223.63;;;16.26;52.86
9740;BME280;4909;42.680;26.324;2023-05-14T03:55:30;99242.31;;;16.42;52.05
9740;BME280;4909;42.680;26.324;2023-05-14T03:57:56;99253.91;;;16.42;51.59
9740;BME280;4909;42.680;26.324;2023-05-14T04:00:23;99256.31;;;16.47;53.22
9740;BME280;4909;42.680;26.324;2023-05-14T04:02:50;99240.84;;;16.36;50.62
9740;BME280;4909;42.680;26.324;2023-05-14T04:05:17;99261.66;;;16.01;51.17
9740;BME280;4909;42.680;26.324;2023-05-14T04:07:43;99278.56;;;15.71;51.18
9740;BME280;4909;42.680;26.324;2023-05-14T04:10:13;99269.41;;;15.42;53.42
9740;BME280;4909;42.680;26.324;2023-05-14T04:12:40;99280.66;;;15.48;55.99
9740;BME280;4909;42.680;26.324;2023-05-14T04:15:08;99257.50;;;15.96;56.65
9740;BME280;4909;42.680;26.324;2023-05-14T04:17:35;99268.94;;;16.45;54.99
9740;BME280;4909;42.680;26.324;2023-05-14T04:20:02;99268.81;;;16.78;54.81
9740;BME280;4909;42.680;26.324;2023-05-14T04:22:28;99248.16;;;16.94;54.33
9740;BME280;4909;42.680;26.324;2023-05-14T04:24:56;99271.88;;;17.30;53.03
9740;BME280;4909;42.680;26.324;2023-05-14T04:27:24;99261.91;;;17.46;52.85
9740;BME280;4909;42.680;26.324;2023-05-14T04:29:51;99270.00;;;17.60;51.31
9740;BME280;4909;42.680;26.324;2023-05-14T04:32:17;99283.41;;;17.60;52.51
9740;BME280;4909;42.680;26.324;2023-05-14T04:34:44;99264.81;;;17.71;51.84
9740;BME280;4909;42.680;26.324;2023-05-14T04:37:12;99246.38;;;17.79;51.25
9740;BME280;4909;42.680;26.324;2023-05-14T04:39:39;99266.28;;;18.04;51.87
9740;BME280;4909;42.680;26.324;2023-05-14T04:42:05;99271.63;;;18.18;51.59
9740;BME280;4909;42.680;26.324;2023-05-14T04:44:34;99272.66;;;18.30;51.57
9740;BME280;4909;42.680;26.324;2023-05-14T04:47:02;99274.09;;;18.21;49.02
9740;BME280;4909;42.680;26.324;2023-05-14T04:49:30;99265.28;;;18.19;51.74
9740;BME280;4909;42.680;26.324;2023-05-14T04:51:57;99272.66;;;18.30;49.34
9740;BME280;4909;42.680;26.324;2023-05-14T04:54:24;99259.97;;;18.05;47.87
9740;BME280;4909;42.680;26.324;2023-05-14T04:56:51;99280.91;;;18.27;52.57
9740;BME280;4909;42.680;26.324;2023-05-14T04:59:20;99264.22;;;18.48;51.29
9740;BME280;4909;42.680;26.324;2023-05-14T05:01:48;99273.16;;;18.76;50.08
9740;BME280;4909;42.680;26.324;2023-05-14T05:04:16;99280.72;;;18.96;50.87
9740;BME280;4909;42.680;26.324;2023-05-14T05:06:42;99277.41;;;19.18;49.51
9740;BME280;4909;42.680;26.324;2023-05-14T05:09:09;99269.25;;;19.19;46.42
9740;BME280;4909;42.680;26.324;2023-05-14T05:11:36;99270.19;;;19.18;49.58
9740;BME280;4909;42.680;26.324;2023-05-14T05:14:03;99268.91;;;19.11;49.69
9740;BME280;4909;42.680;26.324;2023-05-14T05:16:30;99273.84;;;19.17;48.64
9740;BME280;4909;42.680;26.324;2023-05-14T05:18:58;99265.69;;;19.19;50.07
9740;BME280;4909;42.680;26.324;2023-05-14T05:21:25;99270.09;;;19.20;46.61
9740;BME280;4909;42.680;26.324;2023-05-14T05:23:52;99275.44;;;18.94;43.06
9740;BME280;4909;42.680;26.324;2023-05-14T05:26:19;99265.28;;;18.46;41.83
9740;BME280;4909;42.680;26.324;2023-05-14T05:28:46;99267.06;;;18.59;49.18
9740;BME280;4909;42.680;26.324;2023-05-14T05:31:13;99264.00;;;18.51;41.52
9740;BME280;4909;42.680;26.324;2023-05-14T05:33:40;99280.59;;;18.31;41.97
9740;BME280;4909;42.680;26.324;2023-05-14T05:36:09;99280.78;;;17.87;42.45
9740;BME280;4909;42.680;26.324;2023-05-14T05:38:35;99281.31;;;17.65;43.89
9740;BME280;4909;42.680;26.324;2023-05-14T05:41:02;99290.59;;;17.60;43.61
9740;BME280;4909;42.680;26.324;2023-05-14T05:43:29;99296.84;;;17.60;46.71
9740;BME280;4909;42.680;26.324;2023-05-14T05:45:59;99280.75;;;17.02;46.97
9740;BME280;4909;42.680;26.324;2023-05-14T05:48:26;99290.41;;;17.05;45.53
9740;BME280;4909;42.680;26.324;2023-05-14T05:50:52;99291.25;;;16.91;46.72
9740;BME280;4909;42.680;26.324;2023-05-14T05:53:20;99292.88;;;16.93;47.47
9740;BME280;4909;42.680;26.324;2023-05-14T05:55:47;99295.59;;;17.08;47.16
9740;BME280;4909;42.680;26.324;2023-05-14T05:58:15;99297.66;;;17.32;46.38
9740;BME280;4909;42.680;26.324;2023-05-14T06:00:42;99296.38;;;17.38;46.62
9740;BME280;4909;42.680;26.324;2023-05-14T06:03:09;99310.59;;;17.54;47.88
9740;BME280;4909;42.680;26.324;2023-05-14T06:05:36;99311.59;;;17.67;46.74
9740;BME280;4909;42.680;26.324;2023-05-14T06:08:04;99296.34;;;17.68;46.90
9740;BME280;4909;42.680;26.324;2023-05-14T06:10:32;99338.72;;;18.05;45.12
9740;BME280;4909;42.680;26.324;2023-05-14T06:12:59;99339.41;;;17.80;46.00
9740;BME280;4909;42.680;26.324;2023-05-14T06:15:25;99345.94;;;17.76;45.82
9740;BME280;4909;42.680;26.324;2023-05-14T06:17:52;99351.31;;;17.91;46.73
9740;BME280;4909;42.680;26.324;2023-05-14T06:20:19;99361.47;;;17.71;47.04
9740;BME280;4909;42.680;26.324;2023-05-14T06:22:46;99359.16;;;17.65;45.09
9740;BME280;4909;42.680;26.324;2023-05-14T06:25:12;99352.19;;;17.33;45.42
9740;BME280;4909;42.680;26.324;2023-05-14T06:27:41;99350.34;;;17.33;44.90
9740;BME280;4909;42.680;26.324;2023-05-14T06:30:08;99354.28;;;17.28;45.52
9740;BME280;4909;42.680;26.324;2023-05-14T06:32:36;99337.59;;;17.23;45.18
9740;BME280;4909;42.680;26.324;2023-05-14T06:35:03;99319.50;;;17.26;44.18
9740;BME280;4909;42.680;26.324;2023-05-14T06:37:30;99330.94;;;17.72;44.34
9740;BME280;4909;42.680;26.324;2023-05-14T06:39:57;99342.25;;;17.92;43.38
9740;BME280;4909;42.680;26.324;2023-05-14T06:42:24;99335.47;;;18.00;42.01
9740;BME280;4909;42.680;26.324;2023-05-14T06:44:52;99340.34;;;17.94;41.81
9740;BME280;4909;42.680;26.324;2023-05-14T06:47:18;99338.44;;;17.67;42.29
9740;BME280;4909;42.680;26.324;2023-05-14T06:49:45;99338.38;;;17.53;42.52
9740;BME280;4909;42.680;26.324;2023-05-14T06:52:12;99345.81;;;17.64;40.93
9740;BME280;4909;42.680;26.324;2023-05-14T06:54:39;99340.91;;;17.56;41.72
9740;BME280;4909;42.680;26.324;2023-05-14T06:57:05;99323.34;;;17.51;41.25
9740;BME280;4909;42.680;26.324;2023-05-14T06:59:32;99345.16;;;17.30;41.10
9740;BME280;4909;42.680;26.324;2023-05-14T07:02:00;99348.50;;;17.20;41.54
9740;BME280;4909;42.680;26.324;2023-05-14T07:04:27;99336.81;;;17.21;43.21
9740;BME280;4909;42.680;26.324;2023-05-14T07:06:54;99347.31;;;17.10;44.43
9740;BME280;4909;42.680;26.324;2023-05-14T07:09:21;99353.28;;;17.15;44.88
9740;BME280;4909;42.680;26.324;2023-05-14T07:11:48;99343.63;;;17.26;44.49
9740;BME280;4909;42.680;26.324;2023-05-14T07:14:14;99326.84;;;17.09;45.00
9740;BME280;4909;42.680;26.324;2023-05-14T07:16:41;99343.81;;;17.23;45.97
9740;BME280;4909;42.680;26.324;2023-05-14T07:19:11;99345.44;;;17.26;46.56
9740;BME280;4909;42.680;26.324;2023-05-14T07:21:38;99342.69;;;17.27;47.52
9740;BME280;4909;42.680;26.324;2023-05-14T07:24:05;99320.31;;;17.13;47.31
9740;BME280;4909;42.680;26.324;2023-05-14T07:26:32;99347.34;;;17.24;46.54
9740;BME280;4909;42.680;26.324;2023-05-14T07:28:59;99344.00;;;17.20;47.05
9740;BME280;4909;42.680;26.324;2023-05-14T07:31:26;99359.19;;;17.35;46.96
9740;BME280;4909;42.680;26.324;2023-05-14T07:33:53;99356.22;;;17.40;44.93
9740;BME280;4909;42.680;26.324;2023-05-14T07:36:21;99369.72;;;17.38;45.28
9740;BME280;4909;42.680;26.324;2023-05-14T07:38:47;99374.41;;;17.35;43.73
9740;BME280;4909;42.680;26.324;2023-05-14T07:41:14;99379.81;;;17.19;43.65
9740;BME280;4909;42.680;26.324;2023-05-14T07:43:41;99374.41;;;17.35;44.13
9740;BME280;4909;42.680;26.324;2023-05-14T07:46:08;99365.59;;;17.33;41.58
9740;BME280;4909;42.680;26.324;2023-05-14T07:48:35;99370.41;;;17.42;42.38
9740;BME280;4909;42.680;26.324;2023-05-14T07:51:01;99369.44;;;17.43;41.98
9740;BME280;4909;42.680;26.324;2023-05-14T07:53:30;99361.78;;;17.37;41.70
9740;BME280;4909;42.680;26.324;2023-05-14T07:55:56;99349.22;;;17.37;42.91
9740;BME280;4909;42.680;26.324;2023-05-14T07:58:24;99352.94;;;17.35;42.38
9740;BME280;4909;42.680;26.324;2023-05-14T08:00:52;99361.38;;;17.43;43.32
9740;BME280;4909;42.680;26.324;2023-05-14T08:03:18;99352.59;;;17.55;43.29
9740;BME280;4909;42.680;26.324;2023-05-14T08:05:45;99360.84;;;17.52;43.55
9740;BME280;4909;42.680;26.324;2023-05-14T08:08:12;99368.84;;;17.38;44.00
9740;BME280;4909;42.680;26.324;2023-05-14T08:10:40;99368.47;;;17.44;44.99
9740;BME280;4909;42.680;26.324;2023-05-14T08:13:07;99375.38;;;17.48;44.09
9740;BME280;4909;42.680;26.324;2023-05-14T08:15:34;99369.03;;;17.35;45.51
9740;BME280;4909;42.680;26.324;2023-05-14T08:18:00;99362.91;;;17.33;45.33
9740;BME280;4909;42.680;26.324;2023-05-14T08:20:28;99350.47;;;17.32;45.25
9740;BME280;4909;42.680;26.324;2023-05-14T08:22:55;99347.94;;;17.29;45.69
9740;BME280;4909;42.680;26.324;2023-05-14T08:25:22;99341.84;;;17.41;46.06
9740;BME280;4909;42.680;26.324;2023-05-14T08:27:52;99345.97;;;17.47;44.60
9740;BME280;4909;42.680;26.324;2023-05-14T08:30:19;99346.78;;;17.63;45.18
9740;BME280;4909;42.680;26.324;2023-05-14T08:32:46;99323.72;;;17.45;45.30
9740;BME280;4909;42.680;26.324;2023-05-14T08:35:12;99346.72;;;17.49;45.58
9740;BME280;4909;42.680;26.324;2023-05-14T08:37:40;99342.47;;;17.60;44.44
9740;BME280;4909;42.680;26.324;2023-05-14T08:40:08;99334.94;;;17.37;45.38
9740;BME280;4909;42.680;26.324;2023-05-14T08:42:37;99340.50;;;17.48;45.55
9740;BME280;4909;42.680;26.324;2023-05-14T08:45:10;99342.47;;;17.60;45.75
9740;BME280;4909;42.680;26.324;2023-05-14T08:47:39;99308.56;;;17.44;44.77
9740;BME280;4909;42.680;26.324;2023-05-14T08:50:06;99340.06;;;17.70;45.10
9740;BME280;4909;42.680;26.324;2023-05-14T08:52:33;99347.06;;;17.72;45.52
9740;BME280;4909;42.680;26.324;2023-05-14T08:55:02;99342.97;;;17.81;45.86
9740;BME280;4909;42.680;26.324;2023-05-14T08:57:31;99326.94;;;17.94;45.19
9740;BME280;4909;42.680;26.324;2023-05-14T08:59:58;99353.00;;;18.06;44.39
9740;BME280;4909;42.680;26.324;2023-05-14T09:02:29;99335.75;;;17.96;43.50
9740;BME280;4909;42.680;26.324;2023-05-14T09:04:57;99365.88;;;18.15;44.08
9740;BME280;4909;42.680;26.324;2023-05-14T09:07:24;99330.94;;;17.72;43.49
9740;BME280;4909;42.680;26.324;2023-05-14T09:09:52;99365.56;;;17.91;44.15
9740;BME280;4909;42.680;26.324;2023-05-14T09:12:19;99370.19;;;17.89;44.35
9740;BME280;4909;42.680;26.324;2023-05-14T09:14:47;99372.78;;;17.91;45.18
9740;BME280;4909;42.680;26.324;2023-05-14T09:17:14;99369.59;;;17.70;45.58
9740;BME280;4909;42.680;26.324;2023-05-14T09:19:43;99368.50;;;17.58;45.20
9740;BME280;4909;42.680;26.324;2023-05-14T09:22:13;99362.13;;;17.61;44.27
9740;BME280;4909;42.680;26.324;2023-05-14T09:24:40;99336.63;;;17.38;44.27
9740;BME280;4909;42.680;26.324;2023-05-14T09:27:07;99375.97;;;17.53;42.86
9740;BME280;4909;42.680;26.324;2023-05-14T09:29:34;99370.97;;;17.33;44.12
9740;BME280;4909;42.680;26.324;2023-05-14T09:32:01;99373.50;;;17.20;44.64
9740;BME280;4909;42.680;26.324;2023-05-14T09:34:32;99371.63;;;17.36;44.31
9740;BME280;4909;42.680;26.324;2023-05-14T09:37:05;99362.44;;;17.41;44.73
9740;BME280;4909;42.680;26.324;2023-05-14T09:39:32;99380.88;;;17.47;44.89
9740;BME280;4909;42.680;26.324;2023-05-14T09:42:01;99340.28;;;17.23;43.52
9740;BME280;4909;42.680;26.324;2023-05-14T09:44:28;99366.28;;;17.36;44.27
9740;BME280;4909;42.680;26.324;2023-05-14T09:46:55;99373.53;;;17.34;44.62
9740;BME280;4909;42.680;26.324;2023-05-14T09:49:22;99359.50;;;17.15;45.78
9740;BME280;4909;42.680;26.324;2023-05-14T09:51:49;99363.66;;;17.21;46.25
9740;BME280;4909;42.680;26.324;2023-05-14T09:54:17;99367.19;;;17.21;47.33
9740;BME280;4909;42.680;26.324;2023-05-14T09:56:43;99364.63;;;17.34;47.07
9740;BME280;4909;42.680;26.324;2023-05-14T09:59:10;99359.97;;;17.37;46.82
9740;BME280;4909;42.680;26.324;2023-05-14T10:01:37;99360.63;;;17.41;47.00
9740;BME280;4909;42.680;26.324;2023-05-14T10:04:06;99359.69;;;17.42;47.00
9740;BME280;4909;42.680;26.324;2023-05-14T10:06:36;99372.81;;;17.47;47.06
9740;BME280;4909;42.680;26.324;2023-05-14T10:09:04;99360.00;;;17.22;46.44
9740;BME280;4909;42.680;26.324;2023-05-14T10:11:36;99343.69;;;17.11;48.48
9740;BME280;4909;42.680;26.324;2023-05-14T10:14:07;99354.81;;;17.19;46.96
9740;BME280;4909;42.680;26.324;2023-05-14T10:16:36;99359.34;;;17.18;45.32
9740;BME280;4909;42.680;26.324;2023-05-14T10:19:08;99360.75;;;17.24;45.88
9740;BME280;4909;42.680;26.324;2023-05-14T10:21:36;99355.50;;;17.22;47.34
9740;BME280;4909;42.680;26.324;2023-05-14T10:24:06;99322.00;;;17.00;46.99
9740;BME280;4909;42.680;26.324;2023-05-14T10:26:35;99342.06;;;17.08;47.58
9740;BME280;4909;42.680;26.324;2023-05-14T10:29:04;99334.41;;;17.16;46.29
9740;BME280;4909;42.680;26.324;2023-05-14T10:31:51;99324.84;;;17.26;44.69
9740;BME280;4909;42.680;26.324;2023-05-14T10:34:35;99332.13;;;17.38;46.22
9740;BME280;4909;42.680;26.324;2023-05-14T10:37:08;99333.72;;;17.43;45.60
9740;BME280;4909;42.680;26.324;2023-05-14T10:39:42;99335.13;;;17.48;45.02
9740;BME280;4909;42.680;26.324;2023-05-14T10:42:12;99308.38;;;17.32;45.12
9740;BME280;4909;42.680;26.324;2023-05-14T10:44:46;99324.59;;;17.45;42.43
9740;BME280;4909;42.680;26.324;2023-05-14T10:47:13;99301.97;;;17.49;45.28
9740;BME280;4909;42.680;26.324;2023-05-14T10:49:41;99306.91;;;17.71;44.17
9740;BME280;4909;42.680;26.324;2023-05-14T10:52:08;99312.34;;;17.84;43.60
9740;BME280;4909;42.680;26.324;2023-05-14T10:54:36;99297.94;;;17.99;43.28
9740;BME280;4909;42.680;26.324;2023-05-14T10:57:03;99285.22;;;17.88;42.10
9740;BME280;4909;42.680;26.324;2023-05-14T10:59:40;99292.06;;;18.06;42.74
9740;BME280;4909;42.680;26.324;2023-05-14T11:02:17;99276.56;;;17.83;42.69
9740;BME280;4909;42.680;26.324;2023-05-14T11:04:54;99252.69;;;17.93;41.90
9740;BME280;4909;42.680;26.324;2023-05-14T11:07:24;99276.47;;;17.99;42.29
9740;BME280;4909;42.680;26.324;2023-05-14T11:09:59;99280.59;;;18.04;41.79
9740;BME280;4909;42.680;26.324;2023-05-14T11:12:26;99270.94;;;18.29;43.06
9740;BME280;4909;42.680;26.324;2023-05-14T11:14:56;99269.22;;;18.40;43.00
9740;BME280;4909;42.680;26.324;2023-05-14T11:17:24;99264.97;;;18.50;43.09
9740;BME280;4909;42.680;26.324;2023-05-14T11:19:51;99261.44;;;18.77;43.36
9740;BME280;4909;42.680;26.324;2023-05-14T11:22:18;99256.88;;;18.64;40.47
9740;BME280;4909;42.680;26.324;2023-05-14T11:24:45;99260.88;;;18.72;40.80
9740;BME280;4909;42.680;26.324;2023-05-14T11:27:12;99259.63;;;18.77;40.62
9740;BME280;4909;42.680;26.324;2023-05-14T11:29:42;99238.44;;;18.85;40.70
9740;BME280;4909;42.680;26.324;2023-05-14T11:32:11;99214.00;;;18.88;41.57
9740;BME280;4909;42.680;26.324;2023-05-14T11:34:38;99241.13;;;18.98;39.79
9740;BME280;4909;42.680;26.324;2023-05-14T11:37:05;99235.59;;;18.74;39.80
9740;BME280;4909;42.680;26.324;2023-05-14T11:39:33;99226.66;;;18.74;43.02
9740;BME280;4909;42.680;26.324;2023-05-14T11:42:02;99235.72;;;18.73;43.31
9740;BME280;4909;42.680;26.324;2023-05-14T11:44:29;99226.56;;;18.62;44.04
9740;BME280;4909;42.680;26.324;2023-05-14T11:46:56;99211.34;;;18.49;45.15
9740;BME280;4909;42.680;26.324;2023-05-14T11:49:27;99193.03;;;18.41;43.67
9740;BME280;4909;42.680;26.324;2023-05-14T11:51:57;99213.13;;;18.62;42.91
9740;BME280;4909;42.680;26.324;2023-05-14T11:54:25;99218.22;;;18.53;43.70
9740;BME280;4909;42.680;26.324;2023-05-14T11:56:53;99218.91;;;18.56;42.66
9740;BME280;4909;42.680;26.324;2023-05-14T11:59:20;99214.16;;;18.60;42.86
9740;BME280;4909;42.680;26.324;2023-05-14T12:01:47;99207.00;;;18.73;45.05
9740;BME280;4909;42.680;26.324;2023-05-14T12:04:15;99154.38;;;18.56;44.67
9740;BME280;4909;42.680;26.324;2023-05-14T12:06:44;99229.81;;;18.80;44.01
9740;BME280;4909;42.680;26.324;2023-05-14T12:09:11;99229.59;;;18.83;45.20
9740;BME280;4909;42.680;26.324;2023-05-14T12:11:40;99192.34;;;18.64;43.68
9740;BME280;4909;42.680;26.324;2023-05-14T12:14:11;99216.78;;;18.74;44.96
9740;BME280;4909;42.680;26.324;2023-05-14T12:16:39;99200.31;;;18.79;45.67
9740;BME280;4909;42.680;26.324;2023-05-14T12:19:08;99190.44;;;19.04;46.24
9740;BME280;4909;42.680;26.324;2023-05-14T12:21:37;99180.13;;;19.11;44.61
9740;BME280;4909;42.680;26.324;2023-05-14T12:24:08;99175.16;;;19.18;43.71
9740;BME280;4909;42.680;26.324;2023-05-14T12:26:35;99177.75;;;19.19;43.13
9740;BME280;4909;42.680;26.324;2023-05-14T12:29:04;99178.19;;;19.00;43.73
9740;BME280;4909;42.680;26.324;2023-05-14T12:31:33;99183.78;;;18.97;44.60
9740;BME280;4909;42.680;26.324;2023-05-14T12:34:01;99179.03;;;18.88;45.94
9740;BME280;4909;42.680;26.324;2023-05-14T12:36:28;99188.19;;;19.11;45.57
9740;BME280;4909;42.680;26.324;2023-05-14T12:38:58;99175.69;;;19.23;45.89
9740;BME280;4909;42.680;26.324;2023-05-14T12:41:27;99168.06;;;19.17;45.69
9740;BME280;4909;42.680;26.324;2023-05-14T12:43:54;99184.34;;;19.02;44.76
9740;BME280;4909;42.680;26.324;2023-05-14T12:46:21;99164.50;;;19.03;46.25
9740;BME280;4909;42.680;26.324;2023-05-14T12:48:48;99172.25;;;19.21;45.36
9740;BME280;4909;42.680;26.324;2023-05-14T12:51:15;99129.44;;;18.80;45.49
9740;BME280;4909;42.680;26.324;2023-05-14T12:53:42;99162.78;;;19.15;45.86
9740;BME280;4909;42.680;26.324;2023-05-14T12:56:09;99169.09;;;19.27;43.57
9740;BME280;4909;42.680;26.324;2023-05-14T12:58:38;99178.91;;;19.28;43.88
9740;BME280;4909;42.680;26.324;2023-05-14T13:01:05;99153.97;;;19.00;43.50
9740;BME280;4909;42.680;26.324;2023-05-14T13:03:32;99171.31;;;18.96;42.76
9740;BME280;4909;42.680;26.324;2023-05-14T13:05:58;99171.94;;;19.00;45.39
9740;BME280;4909;42.680;26.324;2023-05-14T13:08:25;99166.34;;;18.90;43.48
9740;BME280;4909;42.680;26.324;2023-05-14T13:10:53;99151.94;;;18.91;43.66
9740;BME280;4909;42.680;26.324;2023-05-14T13:13:19;99138.34;;;18.93;43.92
9740;BME280;4909;42.680;26.324;2023-05-14T13:15:48;99162.81;;;19.02;44.72